Terminal Aerodrome Forecast
Issued by NWS

Home | Current Version | Previous Version | Text Only | Print | Product List | Glossary On
Versions: 1 2 3 4 5 6 7 8 9 10 11 12 13 14 15 16 17 18
802
FTUS44 KLIX 232103 AAA
TAFGPT
TAF AMD
KGPT 232103Z 2321/2418 17008KT P6SM VCTS SCT030CB
     FM240000 VRB03KT P6SM SCT250
     FM241600 30004KT P6SM SCT025 BKN090=

USA.gov is the U.S. government's official web portal to all federal, state and local government web resources and services.